sensor_id;sensor_type;location;lat;lon;timestamp;pressure;altitude;pressure_sealevel;temperature;humidity
61742;BME280;47650;49.848;9.620;2024-03-08T00:00:57;99819.31;;;2.80;77.19
61742;BME280;47650;49.848;9.620;2024-03-08T00:03:24;99817.97;;;2.73;76.81
61742;BME280;47650;49.848;9.620;2024-03-08T00:10:42;99789.66;;;2.35;78.30
61742;BME280;47650;49.848;9.620;2024-03-08T00:13:09;99826.53;;;2.47;78.68
61742;BME280;47650;49.848;9.620;2024-03-08T00:15:35;99811.06;;;2.42;79.10
61742;BME280;47650;49.848;9.620;2024-03-08T00:18:02;99819.97;;;2.39;80.12
61742;BME280;47650;49.848;9.620;2024-03-08T00:20:27;99819.13;;;2.39;80.73
61742;BME280;47650;49.848;9.620;2024-03-08T00:22:53;99814.06;;;2.36;81.66
61742;BME280;47650;49.848;9.620;2024-03-08T00:25:24;99710.16;;;1.77;82.30
61742;BME280;47650;49.848;9.620;2024-03-08T00:27:55;99803.09;;;2.29;82.21
61742;BME280;47650;49.848;9.620;2024-03-08T00:30:25;99814.31;;;2.31;82.44
61742;BME280;47650;49.848;9.620;2024-03-08T00:32:51;99814.47;;;2.28;82.73
61742;BME280;47650;49.848;9.620;2024-03-08T00:35:18;99800.06;;;2.21;84.41
61742;BME280;47650;49.848;9.620;2024-03-08T00:37:43;99798.28;;;2.21;84.50
61742;BME280;47650;49.848;9.620;2024-03-08T00:40:12;99786.84;;;2.08;84.20
61742;BME280;47650;49.848;9.620;2024-03-08T00:42:39;99771.66;;;1.99;83.42
61742;BME280;47650;49.848;9.620;2024-03-08T00:45:08;99787.84;;;2.05;83.46
61742;BME280;47650;49.848;9.620;2024-03-08T00:47:35;99803.63;;;2.04;84.71
61742;BME280;47650;49.848;9.620;2024-03-08T00:50:00;99802.97;;;2.00;84.49
61742;BME280;47650;49.848;9.620;2024-03-08T00:52:29;99785.78;;;1.96;87.04
61742;BME280;47650;49.848;9.620;2024-03-08T00:54:54;99789.50;;;1.92;86.28
61742;BME280;47650;49.848;9.620;2024-03-08T00:57:20;99786.47;;;1.84;86.87
61742;BME280;47650;49.848;9.620;2024-03-08T00:59:47;99780.47;;;1.82;88.50
61742;BME280;47650;49.848;9.620;2024-03-08T01:02:12;99782.84;;;1.71;89.13
61742;BME280;47650;49.848;9.620;2024-03-08T01:04:38;99781.22;;;1.84;89.33
61742;BME280;47650;49.848;9.620;2024-03-08T01:07:04;99780.66;;;1.79;88.77
61742;BME280;47650;49.848;9.620;2024-03-08T01:09:31;99792.19;;;1.75;89.24
61742;BME280;47650;49.848;9.620;2024-03-08T01:11:58;99773.28;;;1.69;88.86
61742;BME280;47650;49.848;9.620;2024-03-08T01:14:24;99777.19;;;1.62;89.47
61742;BME280;47650;49.848;9.620;2024-03-08T01:16:53;99769.53;;;1.59;89.76
61742;BME280;47650;49.848;9.620;2024-03-08T01:19:20;99771.56;;;1.54;89.84
61742;BME280;47650;49.848;9.620;2024-03-08T01:21:45;99762.94;;;1.52;89.75
61742;BME280;47650;49.848;9.620;2024-03-08T01:24:11;99750.63;;;1.38;88.63
61742;BME280;47650;49.848;9.620;2024-03-08T01:26:40;99767.75;;;1.44;89.25
61742;BME280;47650;49.848;9.620;2024-03-08T01:29:09;99740.75;;;1.27;90.35
61742;BME280;47650;49.848;9.620;2024-03-08T01:31:35;99742.28;;;1.31;89.66
61742;BME280;47650;49.848;9.620;2024-03-08T01:34:01;99716.41;;;1.11;90.08
61742;BME280;47650;49.848;9.620;2024-03-08T01:36:27;99746.06;;;1.26;89.96
61742;BME280;47650;49.848;9.620;2024-03-08T01:38:52;99739.34;;;1.22;89.72
61742;BME280;47650;49.848;9.620;2024-03-08T01:41:19;99711.84;;;0.99;89.53
61742;BME280;47650;49.848;9.620;2024-03-08T01:43:45;99730.13;;;0.99;91.03
61742;BME280;47650;49.848;9.620;2024-03-08T01:46:14;99729.94;;;1.02;94.68
61742;BME280;47650;49.848;9.620;2024-03-08T01:48:41;99738.22;;;1.10;93.94
61742;BME280;47650;49.848;9.620;2024-03-08T01:51:07;99696.88;;;0.85;95.56
61742;BME280;47650;49.848;9.620;2024-03-08T01:53:35;99719.34;;;1.05;96.07
61742;BME280;47650;49.848;9.620;2024-03-08T01:56:01;99662.03;;;0.70;94.24
61742;BME280;47650;49.848;9.620;2024-03-08T01:58:29;99735.16;;;1.02;94.81
61742;BME280;47650;49.848;9.620;2024-03-08T02:00:56;99726.56;;;1.00;95.96
61742;BME280;47650;49.848;9.620;2024-03-08T02:03:23;99711.06;;;0.97;96.57
61742;BME280;47650;49.848;9.620;2024-03-08T02:05:49;99704.94;;;0.98;97.18
61742;BME280;47650;49.848;9.620;2024-03-08T02:08:18;99700.63;;;0.97;97.40
61742;BME280;47650;49.848;9.620;2024-03-08T02:10:44;99708.06;;;1.04;96.19
61742;BME280;47650;49.848;9.620;2024-03-08T02:13:11;99704.84;;;0.99;96.02
61742;BME280;47650;49.848;9.620;2024-03-08T02:15:59;99707.19;;;0.88;100.00
61742;BME280;47650;49.848;9.620;2024-03-08T02:18:26;99704.84;;;0.99;100.00
61742;BME280;47650;49.848;9.620;2024-03-08T02:21:02;99719.69;;;0.99;97.51
61742;BME280;47650;49.848;9.620;2024-03-08T02:23:29;99704.84;;;0.83;100.00
61742;BME280;47650;49.848;9.620;2024-03-08T02:25:55;99711.94;;;0.97;100.00
61742;BME280;47650;49.848;9.620;2024-03-08T02:28:21;99709.25;;;0.99;99.45
61742;BME280;47650;49.848;9.620;2024-03-08T02:30:47;99669.50;;;0.76;99.44
61742;BME280;47650;49.848;9.620;2024-03-08T02:33:17;99710.47;;;0.91;98.85
61742;BME280;47650;49.848;9.620;2024-03-08T02:35:44;99704.56;;;0.88;99.33
61742;BME280;47650;49.848;9.620;2024-03-08T02:38:18;99650.69;;;0.53;97.60
61742;BME280;47650;49.848;9.620;2024-03-08T02:40:46;99704.84;;;0.83;97.83
61742;BME280;47650;49.848;9.620;2024-03-08T02:43:15;99690.31;;;0.78;97.85
61742;BME280;47650;49.848;9.620;2024-03-08T02:45:41;99680.69;;;0.62;97.67
61742;BME280;47650;49.848;9.620;2024-03-08T02:48:09;99693.22;;;0.55;97.80
61742;BME280;47650;49.848;9.620;2024-03-08T02:50:36;99691.03;;;0.64;97.99
61742;BME280;47650;49.848;9.620;2024-03-08T02:53:02;99679.25;;;0.56;100.00
61742;BME280;47650;49.848;9.620;2024-03-08T02:55:27;99683.22;;;0.64;100.00
61742;BME280;47650;49.848;9.620;2024-03-08T02:57:53;99684.56;;;0.71;100.00
61742;BME280;47650;49.848;9.620;2024-03-08T03:00:23;99686.13;;;0.75;100.00
61742;BME280;47650;49.848;9.620;2024-03-08T03:02:50;99682.75;;;0.73;100.00
61742;BME280;47650;49.848;9.620;2024-03-08T03:05:23;99680.28;;;0.70;100.00
61742;BME280;47650;49.848;9.620;2024-03-08T03:07:53;99676.06;;;0.67;100.00
61742;BME280;47650;49.848;9.620;2024-03-08T03:10:23;99646.72;;;0.46;100.00
61742;BME280;47650;49.848;9.620;2024-03-08T03:12:50;99648.81;;;0.40;100.00
61742;BME280;47650;49.848;9.620;2024-03-08T03:15:16;99677.47;;;0.57;100.00
61742;BME280;47650;49.848;9.620;2024-03-08T03:17:48;99659.53;;;0.51;100.00
61742;BME280;47650;49.848;9.620;2024-03-08T03:20:17;99669.91;;;0.52;100.00
61742;BME280;47650;49.848;9.620;2024-03-08T03:22:49;99654.72;;;0.43;100.00
61742;BME280;47650;49.848;9.620;2024-03-08T03:25:18;99673.75;;;0.45;100.00
61742;BME280;47650;49.848;9.620;2024-03-08T03:27:49;99652.59;;;0.34;100.00
61742;BME280;47650;49.848;9.620;2024-03-08T03:30:20;99615.66;;;0.08;100.00
61742;BME280;47650;49.848;9.620;2024-03-08T03:32:49;99656.97;;;0.33;100.00
61742;BME280;47650;49.848;9.620;2024-03-08T03:35:17;99643.41;;;0.27;100.00
61742;BME280;47650;49.848;9.620;2024-03-08T03:37:44;99653.34;;;0.36;100.00
61742;BME280;47650;49.848;9.620;2024-03-08T03:40:38;99620.44;;;0.17;100.00
61742;BME280;47650;49.848;9.620;2024-03-08T03:43:04;99657.88;;;0.32;100.00
61742;BME280;47650;49.848;9.620;2024-03-08T03:45:31;99652.81;;;0.29;100.00
61742;BME280;47650;49.848;9.620;2024-03-08T03:48:01;99596.38;;;-0.05;100.00
61742;BME280;47650;49.848;9.620;2024-03-08T03:50:27;99589.78;;;-0.12;100.00
61742;BME280;47650;49.848;9.620;2024-03-08T03:52:56;99637.66;;;0.20;100.00
61742;BME280;47650;49.848;9.620;2024-03-08T03:55:22;99606.47;;;0.01;100.00
61742;BME280;47650;49.848;9.620;2024-03-08T03:57:48;99638.50;;;0.21;100.00
61742;BME280;47650;49.848;9.620;2024-03-08T04:00:15;99643.28;;;0.12;100.00
61742;BME280;47650;49.848;9.620;2024-03-08T04:02:41;99641.34;;;0.16;100.00
61742;BME280;47650;49.848;9.620;2024-03-08T04:05:07;99647.41;;;0.16;100.00
61742;BME280;47650;49.848;9.620;2024-03-08T04:07:33;99639.38;;;0.04;100.00
61742;BME280;47650;49.848;9.620;2024-03-08T04:10:04;99585.19;;;-0.25;100.00
61742;BME280;47650;49.848;9.620;2024-03-08T04:12:32;99570.03;;;-0.34;100.00
61742;BME280;47650;49.848;9.620;2024-03-08T04:14:57;99627.72;;;-0.07;100.00
61742;BME280;47650;49.848;9.620;2024-03-08T04:17:24;99632.38;;;0.04;100.00
61742;BME280;47650;49.848;9.620;2024-03-08T04:19:53;99640.97;;;0.06;100.00
61742;BME280;47650;49.848;9.620;2024-03-08T04:22:20;99637.47;;;0.07;100.00
61742;BME280;47650;49.848;9.620;2024-03-08T04:24:45;99626.72;;;-0.04;100.00
61742;BME280;47650;49.848;9.620;2024-03-08T04:27:27;99622.94;;;0.02;100.00
61742;BME280;47650;49.848;9.620;2024-03-08T04:29:56;99592.09;;;-0.24;100.00
61742;BME280;47650;49.848;9.620;2024-03-08T04:32:31;99601.97;;;-0.13;100.00
61742;BME280;47650;49.848;9.620;2024-03-08T04:34:58;99602.81;;;-0.30;100.00
61742;BME280;47650;49.848;9.620;2024-03-08T04:37:23;99603.34;;;-0.06;100.00
61742;BME280;47650;49.848;9.620;2024-03-08T04:39:50;99625.13;;;-0.24;100.00
61742;BME280;47650;49.848;9.620;2024-03-08T04:42:15;99568.94;;;-0.30;100.00
61742;BME280;47650;49.848;9.620;2024-03-08T04:44:43;99621.81;;;0.07;100.00
61742;BME280;47650;49.848;9.620;2024-03-08T04:47:08;99616.66;;;0.23;100.00
61742;BME280;47650;49.848;9.620;2024-03-08T04:49:35;99541.81;;;-0.26;100.00
61742;BME280;47650;49.848;9.620;2024-03-08T04:52:10;99613.03;;;0.26;100.00
61742;BME280;47650;49.848;9.620;2024-03-08T04:54:37;99620.75;;;0.27;100.00
61742;BME280;47650;49.848;9.620;2024-03-08T04:57:04;99622.69;;;0.24;100.00
61742;BME280;47650;49.848;9.620;2024-03-08T04:59:32;99645.47;;;0.20;100.00
61742;BME280;47650;49.848;9.620;2024-03-08T05:01:58;99623.34;;;0.11;100.00
61742;BME280;47650;49.848;9.620;2024-03-08T05:04:25;99613.53;;;-0.01;100.00
61742;BME280;47650;49.848;9.620;2024-03-08T05:06:50;99605.41;;;-0.12;100.00
61742;BME280;47650;49.848;9.620;2024-03-08T05:09:15;99622.59;;;-0.08;100.00
61742;BME280;47650;49.848;9.620;2024-03-08T05:11:45;99568.03;;;-0.46;100.00
61742;BME280;47650;49.848;9.620;2024-03-08T05:14:11;99625.75;;;-0.19;100.00
61742;BME280;47650;49.848;9.620;2024-03-08T05:16:37;99624.13;;;-0.22;100.00
61742;BME280;47650;49.848;9.620;2024-03-08T05:19:02;99623.34;;;-0.24;100.00
61742;BME280;47650;49.848;9.620;2024-03-08T05:21:28;99611.38;;;-0.45;100.00
61742;BME280;47650;49.848;9.620;2024-03-08T05:23:54;99630.63;;;-0.30;100.00
61742;BME280;47650;49.848;9.620;2024-03-08T05:26:19;99586.34;;;-0.48;100.00
61742;BME280;47650;49.848;9.620;2024-03-08T05:28:45;99615.47;;;-0.22;100.00
61742;BME280;47650;49.848;9.620;2024-03-08T05:31:20;99602.13;;;-0.33;100.00
61742;BME280;47650;49.848;9.620;2024-03-08T05:33:49;99615.00;;;-0.13;100.00
61742;BME280;47650;49.848;9.620;2024-03-08T05:36:15;99597.53;;;-0.28;100.00
61742;BME280;47650;49.848;9.620;2024-03-08T05:38:44;99613.22;;;-0.30;100.00
61742;BME280;47650;49.848;9.620;2024-03-08T05:41:10;99609.03;;;-0.15;100.00
61742;BME280;47650;49.848;9.620;2024-03-08T05:43:37;99598.28;;;-0.26;100.00
61742;BME280;47650;49.848;9.620;2024-03-08T05:46:02;99611.63;;;-0.15;100.00
61742;BME280;47650;49.848;9.620;2024-03-08T05:48:29;99607.41;;;-0.17;100.00
61742;BME280;47650;49.848;9.620;2024-03-08T05:50:57;99603.75;;;-0.13;100.00
61742;BME280;47650;49.848;9.620;2024-03-08T05:53:22;99597.16;;;-0.21;100.00
61742;BME280;47650;49.848;9.620;2024-03-08T05:55:47;99589.25;;;-0.19;100.00
61742;BME280;47650;49.848;9.620;2024-03-08T05:58:14;99592.06;;;-0.06;100.00
61742;BME280;47650;49.848;9.620;2024-03-08T06:00:39;99602.78;;;0.05;100.00
61742;BME280;47650;49.848;9.620;2024-03-08T06:03:05;99600.03;;;-0.09;100.00
61742;BME280;47650;49.848;9.620;2024-03-08T06:05:30;99602.78;;;0.05;100.00
61742;BME280;47650;49.848;9.620;2024-03-08T06:07:55;99597.25;;;0.11;100.00
61742;BME280;47650;49.848;9.620;2024-03-08T06:10:21;99594.38;;;0.00;100.00
61742;BME280;47650;49.848;9.620;2024-03-08T06:12:46;99574.88;;;0.07;100.00
61742;BME280;47650;49.848;9.620;2024-03-08T06:15:12;99598.31;;;0.25;100.00
61742;BME280;47650;49.848;9.620;2024-03-08T06:17:41;99579.09;;;0.10;100.00
61742;BME280;47650;49.848;9.620;2024-03-08T06:20:07;99598.63;;;0.18;100.00
61742;BME280;47650;49.848;9.620;2024-03-08T06:22:39;99602.88;;;0.37;100.00
61742;BME280;47650;49.848;9.620;2024-03-08T06:25:08;99603.41;;;0.44;100.00
61742;BME280;47650;49.848;9.620;2024-03-08T06:27:34;99533.25;;;0.06;100.00
61742;BME280;47650;49.848;9.620;2024-03-08T06:30:00;99608.03;;;0.54;100.00
61742;BME280;47650;49.848;9.620;2024-03-08T06:32:25;99604.94;;;0.64;100.00
61742;BME280;47650;49.848;9.620;2024-03-08T06:34:51;99600.91;;;0.74;100.00
61742;BME280;47650;49.848;9.620;2024-03-08T06:37:17;99603.78;;;0.85;100.00
61742;BME280;47650;49.848;9.620;2024-03-08T06:39:49;99605.13;;;0.92;100.00
61742;BME280;47650;49.848;9.620;2024-03-08T06:42:17;99554.09;;;0.71;100.00
61742;BME280;47650;49.848;9.620;2024-03-08T06:44:43;99602.59;;;1.07;100.00
61742;BME280;47650;49.848;9.620;2024-03-08T06:47:15;99605.47;;;1.18;100.00
61742;BME280;47650;49.848;9.620;2024-03-08T06:49:41;99606.47;;;1.31;100.00
61742;BME280;47650;49.848;9.620;2024-03-08T06:52:13;99554.44;;;0.97;100.00
61742;BME280;47650;49.848;9.620;2024-03-08T06:54:44;99548.00;;;1.18;100.00
61742;BME280;47650;49.848;9.620;2024-03-08T06:57:11;99569.13;;;1.29;100.00
61742;BME280;47650;49.848;9.620;2024-03-08T06:59:36;99586.53;;;1.45;100.00
61742;BME280;47650;49.848;9.620;2024-03-08T07:02:07;99521.34;;;1.27;100.00
61742;BME280;47650;49.848;9.620;2024-03-08T07:04:35;99573.19;;;1.80;100.00
61742;BME280;47650;49.848;9.620;2024-03-08T07:07:05;99592.84;;;2.16;100.00
61742;BME280;47650;49.848;9.620;2024-03-08T07:09:30;99591.34;;;2.26;100.00
61742;BME280;47650;49.848;9.620;2024-03-08T07:11:55;99563.41;;;2.26;100.00
61742;BME280;47650;49.848;9.620;2024-03-08T07:14:23;99565.19;;;2.40;100.00
61742;BME280;47650;49.848;9.620;2024-03-08T07:16:49;99480.56;;;2.13;100.00
61742;BME280;47650;49.848;9.620;2024-03-08T07:19:15;99519.97;;;2.38;100.00
61742;BME280;47650;49.848;9.620;2024-03-08T07:21:41;99564.00;;;2.88;100.00
61742;BME280;47650;49.848;9.620;2024-03-08T07:24:23;99560.06;;;2.95;100.00
61742;BME280;47650;49.848;9.620;2024-03-08T07:27:17;99482.31;;;2.68;100.00
61742;BME280;47650;49.848;9.620;2024-03-08T07:29:43;99504.41;;;2.91;100.00
61742;BME280;47650;49.848;9.620;2024-03-08T07:32:09;99535.69;;;3.34;100.00
61742;BME280;47650;49.848;9.620;2024-03-08T07:34:37;99496.16;;;3.37;97.59
61742;BME280;47650;49.848;9.620;2024-03-08T07:37:02;99492.09;;;3.59;96.50
61742;BME280;47650;49.848;9.620;2024-03-08T07:39:29;99540.16;;;3.98;95.70
61742;BME280;47650;49.848;9.620;2024-03-08T07:41:54;99431.56;;;3.49;95.24
61742;BME280;47650;49.848;9.620;2024-03-08T07:44:20;99510.28;;;4.38;91.71
61742;BME280;47650;49.848;9.620;2024-03-08T07:46:50;99468.03;;;4.17;90.21
61742;BME280;47650;49.848;9.620;2024-03-08T07:49:15;99533.38;;;4.82;88.37
61742;BME280;47650;49.848;9.620;2024-03-08T07:51:47;99351.59;;;3.56;89.65
61742;BME280;47650;49.848;9.620;2024-03-08T07:54:14;99521.72;;;5.11;88.01
61742;BME280;47650;49.848;9.620;2024-03-08T07:56:41;99515.91;;;5.18;86.21
61742;BME280;47650;49.848;9.620;2024-03-08T07:59:07;99519.44;;;5.41;83.89
61742;BME280;47650;49.848;9.620;2024-03-08T08:01:32;99505.00;;;5.12;85.64
61742;BME280;47650;49.848;9.620;2024-03-08T08:03:58;99507.69;;;5.81;83.62
61742;BME280;47650;49.848;9.620;2024-03-08T08:06:24;99453.53;;;5.78;83.18
61742;BME280;47650;49.848;9.620;2024-03-08T08:08:51;99494.47;;;6.39;77.69
61742;BME280;47650;49.848;9.620;2024-03-08T08:11:22;99467.56;;;6.79;71.81
61742;BME280;47650;49.848;9.620;2024-03-08T08:13:48;99445.56;;;6.69;70.62
61742;BME280;47650;49.848;9.620;2024-03-08T08:16:13;99431.81;;;7.19;67.64
61742;BME280;47650;49.848;9.620;2024-03-08T08:18:39;99486.00;;;7.65;65.48
61742;BME280;47650;49.848;9.620;2024-03-08T08:21:07;99469.84;;;8.20;63.21
61742;BME280;47650;49.848;9.620;2024-03-08T08:23:32;99439.38;;;8.56;59.57
61742;BME280;47650;49.848;9.620;2024-03-08T08:25:58;99455.84;;;9.18;59.00
61742;BME280;47650;49.848;9.620;2024-03-08T08:28:24;99443.53;;;9.56;55.22
61742;BME280;47650;49.848;9.620;2024-03-08T08:30:50;99446.00;;;10.88;51.67
61742;BME280;47650;49.848;9.620;2024-03-08T08:33:16;99443.50;;;11.75;48.34
61742;BME280;47650;49.848;9.620;2024-03-08T08:35:41;99412.97;;;12.06;45.74
61742;BME280;47650;49.848;9.620;2024-03-08T08:38:07;99424.34;;;13.41;43.07
61742;BME280;47650;49.848;9.620;2024-03-08T08:40:34;99407.94;;;13.93;41.23
61742;BME280;47650;49.848;9.620;2024-03-08T08:43:06;99420.84;;;13.48;41.36
61742;BME280;47650;49.848;9.620;2024-03-08T08:45:32;99341.59;;;14.61;38.84
61742;BME280;47650;49.848;9.620;2024-03-08T08:47:59;99402.81;;;15.23;37.93
61742;BME280;47650;49.848;9.620;2024-03-08T08:50:25;99373.09;;;15.56;36.53
61742;BME280;47650;49.848;9.620;2024-03-08T08:52:52;99322.06;;;15.81;35.01
61742;BME280;47650;49.848;9.620;2024-03-08T08:55:18;99379.81;;;16.63;34.36
61742;BME280;47650;49.848;9.620;2024-03-08T08:57:47;99378.28;;;16.76;33.85
61742;BME280;47650;49.848;9.620;2024-03-08T09:00:13;99374.72;;;17.40;33.04
61742;BME280;47650;49.848;9.620;2024-03-08T09:02:43;99370.66;;;17.85;32.24
61742;BME280;47650;49.848;9.620;2024-03-08T09:05:09;99364.38;;;17.08;33.72
61742;BME280;47650;49.848;9.620;2024-03-08T09:07:35;99376.09;;;17.07;33.28
61742;BME280;47650;49.848;9.620;2024-03-08T09:10:03;99365.81;;;17.04;33.02
61742;BME280;47650;49.848;9.620;2024-03-08T09:12:29;99358.44;;;17.76;31.83
61742;BME280;47650;49.848;9.620;2024-03-08T09:14:54;99349.25;;;17.57;32.39
61742;BME280;47650;49.848;9.620;2024-03-08T09:17:20;99359.91;;;17.85;32.08
61742;BME280;47650;49.848;9.620;2024-03-08T09:19:47;99358.00;;;18.89;30.83
61742;BME280;47650;49.848;9.620;2024-03-08T09:22:13;99328.66;;;18.74;30.57
61742;BME280;47650;49.848;9.620;2024-03-08T09:24:39;99333.59;;;19.38;29.33
61742;BME280;47650;49.848;9.620;2024-03-08T09:27:05;99338.97;;;19.31;29.32
61742;BME280;47650;49.848;9.620;2024-03-08T09:29:30;99330.69;;;18.59;30.10
61742;BME280;47650;49.848;9.620;2024-03-08T09:31:56;99335.47;;;18.64;30.28
61742;BME280;47650;49.848;9.620;2024-03-08T09:34:21;99306.28;;;17.37;31.92
61742;BME280;47650;49.848;9.620;2024-03-08T09:36:47;99327.00;;;19.33;29.75
61742;BME280;47650;49.848;9.620;2024-03-08T09:39:12;99309.22;;;18.59;30.04
61742;BME280;47650;49.848;9.620;2024-03-08T09:41:44;99302.22;;;20.35;27.98
61742;BME280;47650;49.848;9.620;2024-03-08T09:44:16;99256.84;;;17.46;30.83
61742;BME280;47650;49.848;9.620;2024-03-08T09:46:42;99306.63;;;19.78;29.06
61742;BME280;47650;49.848;9.620;2024-03-08T09:49:08;99267.69;;;19.15;28.75
61742;BME280;47650;49.848;9.620;2024-03-08T09:51:34;99298.09;;;19.94;27.66
61742;BME280;47650;49.848;9.620;2024-03-08T09:54:02;99288.34;;;19.93;27.53
61742;BME280;47650;49.848;9.620;2024-03-08T09:56:32;99269.41;;;20.45;26.60
61742;BME280;47650;49.848;9.620;2024-03-08T09:58:58;99287.44;;;19.54;27.64
61742;BME280;47650;49.848;9.620;2024-03-08T10:01:42;99285.69;;;20.57;27.69
61742;BME280;47650;49.848;9.620;2024-03-08T10:04:08;99263.47;;;21.37;26.05
61742;BME280;47650;49.848;9.620;2024-03-08T10:06:35;99263.13;;;21.45;24.98
61742;BME280;47650;49.848;9.620;2024-03-08T10:09:01;99286.50;;;21.33;25.40
61742;BME280;47650;49.848;9.620;2024-03-08T10:11:26;99266.47;;;21.03;25.32
61742;BME280;47650;49.848;9.620;2024-03-08T10:13:52;99273.34;;;20.10;26.60
61742;BME280;47650;49.848;9.620;2024-03-08T10:16:17;99280.28;;;18.48;28.54
61742;BME280;47650;49.848;9.620;2024-03-08T10:18:45;99262.41;;;17.10;30.04
61742;BME280;47650;49.848;9.620;2024-03-08T10:21:11;99137.25;;;14.96;32.84
61742;BME280;47650;49.848;9.620;2024-03-08T10:23:46;99278.44;;;15.95;32.54
61742;BME280;47650;49.848;9.620;2024-03-08T10:26:14;99279.47;;;17.37;31.40
61742;BME280;47650;49.848;9.620;2024-03-08T10:28:46;99257.38;;;18.58;30.19
61742;BME280;47650;49.848;9.620;2024-03-08T10:31:19;99251.31;;;19.37;28.42
61742;BME280;47650;49.848;9.620;2024-03-08T10:33:45;99236.97;;;20.01;27.53
61742;BME280;47650;49.848;9.620;2024-03-08T10:36:22;99247.47;;;20.41;27.00
61742;BME280;47650;49.848;9.620;2024-03-08T10:38:51;99234.03;;;21.54;24.67
61742;BME280;47650;49.848;9.620;2024-03-08T10:41:18;99240.16;;;20.80;25.52
61742;BME280;47650;49.848;9.620;2024-03-08T10:44:39;99239.66;;;22.01;25.25
61742;BME280;47650;49.848;9.620;2024-03-08T10:47:00;99224.75;;;23.47;22.84
61742;BME280;47650;49.848;9.620;2024-03-08T10:50:08;99236.88;;;21.40;25.33
61742;BME280;47650;49.848;9.620;2024-03-08T10:52:23;99202.84;;;21.21;24.82
61742;BME280;47650;49.848;9.620;2024-03-08T10:54:49;99183.69;;;21.78;24.40
61742;BME280;47650;49.848;9.620;2024-03-08T10:57:18;99226.06;;;22.50;23.88
61742;BME280;47650;49.848;9.620;2024-03-08T10:59:47;99225.47;;;22.60;23.79
61742;BME280;47650;49.848;9.620;2024-03-08T11:02:16;99223.31;;;23.97;22.39
61742;BME280;47650;49.848;9.620;2024-03-08T11:04:50;99216.69;;;22.88;23.06
61742;BME280;47650;49.848;9.620;2024-03-08T11:07:22;99212.75;;;23.83;22.14
61742;BME280;47650;49.848;9.620;2024-03-08T11:09:48;99180.34;;;21.94;23.77
61742;BME280;47650;49.848;9.620;2024-03-08T11:12:25;99205.56;;;23.49;22.74
61742;BME280;47650;49.848;9.620;2024-03-08T11:14:53;99204.06;;;21.92;22.47
61742;BME280;47650;49.848;9.620;2024-03-08T11:19:59;99205.13;;;20.80;25.36
61742;BME280;47650;49.848;9.620;2024-03-08T11:22:32;99191.75;;;22.39;23.54
61742;BME280;47650;49.848;9.620;2024-03-08T11:24:59;99186.16;;;22.22;24.26
61742;BME280;47650;49.848;9.620;2024-03-08T11:27:30;99184.28;;;22.10;24.22
61742;BME280;47650;49.848;9.620;2024-03-08T11:30:00;99177.03;;;24.49;22.38
61742;BME280;47650;49.848;9.620;2024-03-08T11:32:35;99178.53;;;24.40;22.32
61742;BME280;47650;49.848;9.620;2024-03-08T11:35:02;99165.72;;;24.35;21.63
61742;BME280;47650;49.848;9.620;2024-03-08T11:37:33;99167.78;;;25.01;21.26
61742;BME280;47650;49.848;9.620;2024-03-08T11:40:00;99164.72;;;25.37;21.25
61742;BME280;47650;49.848;9.620;2024-03-08T11:42:40;99156.63;;;24.98;21.43
61742;BME280;47650;49.848;9.620;2024-03-08T11:45:09;99164.81;;;24.64;21.23
61742;BME280;47650;49.848;9.620;2024-03-08T11:47:36;99134.34;;;25.89;20.42
61742;BME280;47650;49.848;9.620;2024-03-08T11:50:06;99140.53;;;26.92;19.42
61742;BME280;47650;49.848;9.620;2024-03-08T11:52:36;99108.75;;;28.22;18.76
61742;BME280;47650;49.848;9.620;2024-03-08T11:55:04;99128.84;;;27.70;18.40
61742;BME280;47650;49.848;9.620;2024-03-08T11:57:30;99128.41;;;26.62;19.59
61742;BME280;47650;49.848;9.620;2024-03-08T11:59:58;99114.59;;;26.31;19.78
61742;BME280;47650;49.848;9.620;2024-03-08T12:02:26;99105.91;;;27.30;19.60
61742;BME280;47650;49.848;9.620;2024-03-08T12:04:59;99107.00;;;27.39;19.68
61742;BME280;47650;49.848;9.620;2024-03-08T12:07:25;99100.47;;;28.79;18.18
61742;BME280;47650;49.848;9.620;2024-03-08T12:10:18;99093.34;;;28.88;18.18
61742;BME280;47650;49.848;9.620;2024-03-08T12:12:46;99099.72;;;28.58;18.36
61742;BME280;47650;49.848;9.620;2024-03-08T12:15:13;99105.34;;;27.28;19.34
61742;BME280;47650;49.848;9.620;2024-03-08T12:17:41;99104.56;;;26.74;19.62
61742;BME280;47650;49.848;9.620;2024-03-08T12:20:28;99083.63;;;28.61;17.90
61742;BME280;47650;49.848;9.620;2024-03-08T12:22:55;99071.50;;;27.03;18.86
61742;BME280;47650;49.848;9.620;2024-03-08T12:25:30;99073.34;;;26.87;18.97
61742;BME280;47650;49.848;9.620;2024-03-08T12:27:56;99075.06;;;27.14;18.87
61742;BME280;47650;49.848;9.620;2024-03-08T12:30:26;99071.94;;;28.25;18.23
61742;BME280;47650;49.848;9.620;2024-03-08T12:32:57;98955.88;;;27.11;18.05
61742;BME280;47650;49.848;9.620;2024-03-08T12:35:23;99065.97;;;26.77;18.85
61742;BME280;47650;49.848;9.620;2024-03-08T12:37:54;99055.31;;;28.26;18.40
61742;BME280;47650;49.848;9.620;2024-03-08T12:40:31;99071.13;;;28.19;18.35
61742;BME280;47650;49.848;9.620;2024-03-08T12:42:58;99041.41;;;27.46;18.20
61742;BME280;47650;49.848;9.620;2024-03-08T12:45:34;99055.75;;;27.10;19.00
61742;BME280;47650;49.848;9.620;2024-03-08T12:48:02;99045.63;;;25.13;20.18
61742;BME280;47650;49.848;9.620;2024-03-08T12:50:28;99034.63;;;28.10;18.54
61742;BME280;47650;49.848;9.620;2024-03-08T12:52:55;99042.16;;;27.15;19.75
61742;BME280;47650;49.848;9.620;2024-03-08T12:55:23;99041.72;;;28.01;18.36
61742;BME280;47650;49.848;9.620;2024-03-08T12:57:48;99048.94;;;28.67;17.74
61742;BME280;47650;49.848;9.620;2024-03-08T13:00:14;99035.56;;;28.70;17.65
61742;BME280;47650;49.848;9.620;2024-03-08T13:02:47;99018.75;;;28.38;17.46
61742;BME280;47650;49.848;9.620;2024-03-08T13:05:13;99024.19;;;29.18;17.25
61742;BME280;47650;49.848;9.620;2024-03-08T13:07:40;99030.78;;;28.21;18.58
61742;BME280;47650;49.848;9.620;2024-03-08T13:10:06;99015.66;;;28.70;17.25
61742;BME280;47650;49.848;9.620;2024-03-08T13:12:33;99009.91;;;28.77;17.13
61742;BME280;47650;49.848;9.620;2024-03-08T13:15:03;99011.69;;;28.31;17.28